sensor_id;sensor_type;location;lat;lon;timestamp;pressure;altitude;pressure_sealevel;temperature;humidity
41044;BME280;51680;49.806;18.774;2022-11-20T00:02:52;97074.66;;;1.26;65.05
41044;BME280;51680;49.806;18.774;2022-11-20T00:05:54;97068.25;;;1.39;64.76
41044;BME280;51680;49.806;18.774;2022-11-20T00:09:00;97067.81;;;1.51;64.46
41044;BME280;51680;49.806;18.774;2022-11-20T00:12:03;97071.78;;;1.60;64.50
41044;BME280;51680;49.806;18.774;2022-11-20T00:15:06;97073.28;;;1.67;64.60
41044;BME280;51680;49.806;18.774;2022-11-20T00:18:10;97076.41;;;1.75;64.62
41044;BME280;51680;49.806;18.774;2022-11-20T00:21:13;97076.31;;;1.78;64.74
41044;BME280;51680;49.806;18.774;2022-11-20T00:24:15;97070.31;;;1.77;64.79
41044;BME280;51680;49.806;18.774;2022-11-20T00:27:17;97063.50;;;1.76;64.99
41044;BME280;51680;49.806;18.774;2022-11-20T00:30:19;97064.31;;;1.78;64.54
41044;BME280;51680;49.806;18.774;2022-11-20T00:33:22;97060.16;;;1.74;64.54
41044;BME280;51680;49.806;18.774;2022-11-20T00:36:26;97059.56;;;1.66;64.13
41044;BME280;51680;49.806;18.774;2022-11-20T00:39:28;97059.84;;;1.59;64.19
41044;BME280;51680;49.806;18.774;2022-11-20T00:42:29;97071.22;;;1.52;64.92
41044;BME280;51680;49.806;18.774;2022-11-20T00:45:33;97064.66;;;1.43;65.10
41044;BME280;51680;49.806;18.774;2022-11-20T00:48:36;97065.03;;;1.33;65.29
41044;BME280;51680;49.806;18.774;2022-11-20T00:51:38;97062.31;;;1.11;65.98
41044;BME280;51680;49.806;18.774;2022-11-20T00:54:39;97055.19;;;0.93;66.41
41044;BME280;51680;49.806;18.774;2022-11-20T00:57:41;97053.69;;;0.86;66.78
41044;BME280;51680;49.806;18.774;2022-11-20T01:00:43;97055.56;;;0.81;67.47
41044;BME280;51680;49.806;18.774;2022-11-20T01:03:47;97055.38;;;0.59;68.68
41044;BME280;51680;49.806;18.774;2022-11-20T01:06:49;97044.06;;;0.39;69.71
41044;BME280;51680;49.806;18.774;2022-11-20T01:09:51;97049.53;;;0.27;69.52
41044;BME280;51680;49.806;18.774;2022-11-20T01:12:53;97046.91;;;0.30;69.45
41044;BME280;51680;49.806;18.774;2022-11-20T01:16:11;97041.84;;;0.27;70.14
41044;BME280;51680;49.806;18.774;2022-11-20T01:19:17;97040.94;;;0.28;70.16
41044;BME280;51680;49.806;18.774;2022-11-20T01:22:19;97034.84;;;0.32;69.61
41044;BME280;51680;49.806;18.774;2022-11-20T01:25:20;97033.41;;;0.23;69.52
41044;BME280;51680;49.806;18.774;2022-11-20T01:28:22;97032.47;;;0.26;69.20
41044;BME280;51680;49.806;18.774;2022-11-20T01:31:26;97025.97;;;0.14;69.83
41044;BME280;51680;49.806;18.774;2022-11-20T01:34:30;97036.47;;;0.07;70.62
41044;BME280;51680;49.806;18.774;2022-11-20T01:37:31;97028.94;;;0.01;71.16
41044;BME280;51680;49.806;18.774;2022-11-20T01:40:33;97035.56;;;0.08;71.05
41044;BME280;51680;49.806;18.774;2022-11-20T01:43:35;97033.38;;;-0.04;71.47
41044;BME280;51680;49.806;18.774;2022-11-20T01:46:37;97033.63;;;-0.13;71.55
41044;BME280;51680;49.806;18.774;2022-11-20T01:49:45;97027.56;;;-0.11;71.35
41044;BME280;51680;49.806;18.774;2022-11-20T01:52:51;97023.09;;;-0.04;70.87
41044;BME280;51680;49.806;18.774;2022-11-20T01:55:56;97015.19;;;0.03;70.48
41044;BME280;51680;49.806;18.774;2022-11-20T01:59:01;97020.16;;;0.08;70.33
41044;BME280;51680;49.806;18.774;2022-11-20T02:02:05;97017.34;;;0.17;70.07
41044;BME280;51680;49.806;18.774;2022-11-20T02:05:14;97018.66;;;0.30;69.58
41044;BME280;51680;49.806;18.774;2022-11-20T02:08:19;97022.69;;;0.38;68.76
41044;BME280;51680;49.806;18.774;2022-11-20T02:11:21;97029.63;;;0.35;68.18
41044;BME280;51680;49.806;18.774;2022-11-20T02:14:24;97033.31;;;0.27;68.14
41044;BME280;51680;49.806;18.774;2022-11-20T02:17:25;97042.09;;;0.18;68.69
41044;BME280;51680;49.806;18.774;2022-11-20T02:20:29;97047.66;;;0.04;69.66
41044;BME280;51680;49.806;18.774;2022-11-20T02:23:33;97047.94;;;-0.06;70.12
41044;BME280;51680;49.806;18.774;2022-11-20T02:26:43;97042.81;;;-0.06;71.00
41044;BME280;51680;49.806;18.774;2022-11-20T02:29:50;97046.63;;;0.10;70.76
41044;BME280;51680;49.806;18.774;2022-11-20T02:32:53;97044.66;;;0.18;70.56
41044;BME280;51680;49.806;18.774;2022-11-20T02:35:55;97041.22;;;0.19;70.52
41044;BME280;51680;49.806;18.774;2022-11-20T02:38:56;97046.19;;;0.25;70.40
41044;BME280;51680;49.806;18.774;2022-11-20T02:42:00;97044.53;;;0.24;70.42
41044;BME280;51680;49.806;18.774;2022-11-20T02:45:03;97047.00;;;0.25;70.14
41044;BME280;51680;49.806;18.774;2022-11-20T02:48:06;97044.19;;;0.34;69.64
41044;BME280;51680;49.806;18.774;2022-11-20T02:51:08;97049.91;;;0.44;69.79
41044;BME280;51680;49.806;18.774;2022-11-20T02:54:10;97041.69;;;0.61;69.60
41044;BME280;51680;49.806;18.774;2022-11-20T02:57:13;97044.94;;;0.66;68.67
41044;BME280;51680;49.806;18.774;2022-11-20T03:00:15;97037.91;;;0.72;69.02
41044;BME280;51680;49.806;18.774;2022-11-20T03:03:17;97040.22;;;0.80;68.58
41044;BME280;51680;49.806;18.774;2022-11-20T03:06:19;97045.97;;;0.86;68.57
41044;BME280;51680;49.806;18.774;2022-11-20T03:09:20;97042.63;;;0.84;68.35
41044;BME280;51680;49.806;18.774;2022-11-20T03:12:24;97047.84;;;0.81;68.05
41044;BME280;51680;49.806;18.774;2022-11-20T03:15:26;97038.63;;;0.76;68.34
41044;BME280;51680;49.806;18.774;2022-11-20T03:18:28;97043.13;;;0.69;68.76
41044;BME280;51680;49.806;18.774;2022-11-20T03:21:30;97044.78;;;0.70;68.69
41044;BME280;51680;49.806;18.774;2022-11-20T03:24:32;97053.22;;;0.73;68.79
41044;BME280;51680;49.806;18.774;2022-11-20T03:27:35;97051.44;;;0.77;69.05
41044;BME280;51680;49.806;18.774;2022-11-20T03:30:36;97054.69;;;0.82;68.92
41044;BME280;51680;49.806;18.774;2022-11-20T03:33:39;97057.97;;;0.87;69.04
41044;BME280;51680;49.806;18.774;2022-11-20T03:36:42;97057.75;;;0.93;69.08
41044;BME280;51680;49.806;18.774;2022-11-20T03:39:44;97047.28;;;0.99;69.10
41044;BME280;51680;49.806;18.774;2022-11-20T03:42:47;97047.69;;;1.13;68.94
41044;BME280;51680;49.806;18.774;2022-11-20T03:45:49;97041.25;;;1.26;68.83
41044;BME280;51680;49.806;18.774;2022-11-20T03:48:51;97037.47;;;1.36;68.07
41044;BME280;51680;49.806;18.774;2022-11-20T03:51:53;97028.88;;;1.37;67.29
41044;BME280;51680;49.806;18.774;2022-11-20T03:54:55;97026.97;;;1.42;67.58
41044;BME280;51680;49.806;18.774;2022-11-20T03:57:58;97030.44;;;1.41;67.16
41044;BME280;51680;49.806;18.774;2022-11-20T04:01:05;97034.22;;;1.31;67.26
41044;BME280;51680;49.806;18.774;2022-11-20T04:04:07;97033.19;;;1.37;68.14
41044;BME280;51680;49.806;18.774;2022-11-20T04:07:09;97035.38;;;1.47;67.97
41044;BME280;51680;49.806;18.774;2022-11-20T04:10:11;97034.59;;;1.45;67.96
41044;BME280;51680;49.806;18.774;2022-11-20T04:13:14;97027.66;;;1.47;68.22
41044;BME280;51680;49.806;18.774;2022-11-20T04:16:16;97024.56;;;1.38;68.14
41044;BME280;51680;49.806;18.774;2022-11-20T04:19:18;97026.50;;;1.31;68.49
41044;BME280;51680;49.806;18.774;2022-11-20T04:22:20;97027.28;;;1.33;68.57
41044;BME280;51680;49.806;18.774;2022-11-20T04:25:22;97029.00;;;1.34;68.94
41044;BME280;51680;49.806;18.774;2022-11-20T04:28:25;97027.28;;;1.33;68.89
41044;BME280;51680;49.806;18.774;2022-11-20T04:31:29;97029.19;;;1.28;69.26
41044;BME280;51680;49.806;18.774;2022-11-20T04:34:31;97032.56;;;1.30;69.04
41044;BME280;51680;49.806;18.774;2022-11-20T04:37:33;97031.44;;;1.37;68.86
41044;BME280;51680;49.806;18.774;2022-11-20T04:40:34;97028.66;;;1.43;68.67
41044;BME280;51680;49.806;18.774;2022-11-20T04:43:37;97024.19;;;1.48;68.60
41044;BME280;51680;49.806;18.774;2022-11-20T04:46:40;97026.63;;;1.53;68.34
41044;BME280;51680;49.806;18.774;2022-11-20T04:49:42;97011.03;;;1.57;68.41
41044;BME280;51680;49.806;18.774;2022-11-20T04:52:44;97017.06;;;1.56;68.48
41044;BME280;51680;49.806;18.774;2022-11-20T04:55:46;97015.97;;;1.63;68.40
41044;BME280;51680;49.806;18.774;2022-11-20T04:58:49;97005.06;;;1.57;67.67
41044;BME280;51680;49.806;18.774;2022-11-20T05:01:51;96999.91;;;1.57;67.61
41044;BME280;51680;49.806;18.774;2022-11-20T05:04:53;97000.88;;;1.54;67.06
41044;BME280;51680;49.806;18.774;2022-11-20T05:07:55;96987.31;;;1.49;66.77
41044;BME280;51680;49.806;18.774;2022-11-20T05:11:00;96986.56;;;1.46;66.51
41044;BME280;51680;49.806;18.774;2022-11-20T05:14:03;96997.94;;;1.40;66.76
41044;BME280;51680;49.806;18.774;2022-11-20T05:17:05;96987.88;;;1.34;66.10
41044;BME280;51680;49.806;18.774;2022-11-20T05:20:08;96992.88;;;1.37;66.04
41044;BME280;51680;49.806;18.774;2022-11-20T05:23:10;96994.41;;;1.43;66.27
41044;BME280;51680;49.806;18.774;2022-11-20T05:26:14;96990.16;;;1.42;66.33
41044;BME280;51680;49.806;18.774;2022-11-20T05:29:18;96980.69;;;1.42;66.41
41044;BME280;51680;49.806;18.774;2022-11-20T05:32:19;96975.69;;;1.39;66.23
41044;BME280;51680;49.806;18.774;2022-11-20T05:35:21;96979.13;;;1.38;66.48
41044;BME280;51680;49.806;18.774;2022-11-20T05:38:23;96969.75;;;1.37;66.42
41044;BME280;51680;49.806;18.774;2022-11-20T05:41:25;96979.94;;;1.40;66.13
41044;BME280;51680;49.806;18.774;2022-11-20T05:44:28;96979.03;;;1.41;65.66
41044;BME280;51680;49.806;18.774;2022-11-20T05:47:32;96983.09;;;1.24;65.51
41044;BME280;51680;49.806;18.774;2022-11-20T05:50:35;96978.25;;;1.15;66.16
41044;BME280;51680;49.806;18.774;2022-11-20T05:53:37;96976.19;;;1.00;67.27
41044;BME280;51680;49.806;18.774;2022-11-20T05:56:39;96979.16;;;0.88;67.76
41044;BME280;51680;49.806;18.774;2022-11-20T05:59:42;96977.75;;;0.79;68.16
41044;BME280;51680;49.806;18.774;2022-11-20T06:02:44;96981.88;;;0.83;68.19
41044;BME280;51680;49.806;18.774;2022-11-20T06:05:46;96972.25;;;0.90;68.06
41044;BME280;51680;49.806;18.774;2022-11-20T06:08:48;96967.50;;;1.04;67.66
41044;BME280;51680;49.806;18.774;2022-11-20T06:11:50;96959.41;;;1.14;67.25
41044;BME280;51680;49.806;18.774;2022-11-20T06:14:53;96950.72;;;1.18;67.10
41044;BME280;51680;49.806;18.774;2022-11-20T06:17:55;96950.72;;;1.18;66.57
41044;BME280;51680;49.806;18.774;2022-11-20T06:21:01;96949.25;;;1.11;66.11
41044;BME280;51680;49.806;18.774;2022-11-20T06:24:03;96940.59;;;1.14;66.23
41044;BME280;51680;49.806;18.774;2022-11-20T06:27:05;96948.34;;;1.12;66.44
41044;BME280;51680;49.806;18.774;2022-11-20T06:30:09;96945.78;;;1.12;66.14
41044;BME280;51680;49.806;18.774;2022-11-20T06:33:12;96937.94;;;0.92;66.77
41044;BME280;51680;49.806;18.774;2022-11-20T06:36:15;96940.66;;;0.86;67.17
41044;BME280;51680;49.806;18.774;2022-11-20T06:39:17;96936.13;;;0.94;67.33
41044;BME280;51680;49.806;18.774;2022-11-20T06:42:19;96932.34;;;1.04;67.07
41044;BME280;51680;49.806;18.774;2022-11-20T06:45:22;96929.84;;;1.27;66.67
41044;BME280;51680;49.806;18.774;2022-11-20T06:48:25;96928.50;;;1.86;66.29
41044;BME280;51680;49.806;18.774;2022-11-20T06:51:27;96929.28;;;2.74;64.94
41044;BME280;51680;49.806;18.774;2022-11-20T06:54:29;96922.31;;;3.56;62.28
41044;BME280;51680;49.806;18.774;2022-11-20T06:57:31;96924.41;;;3.67;60.98
41044;BME280;51680;49.806;18.774;2022-11-20T07:00:34;96937.50;;;3.62;61.33
41044;BME280;51680;49.806;18.774;2022-11-20T07:03:54;96938.94;;;3.49;61.88
41044;BME280;51680;49.806;18.774;2022-11-20T07:06:56;96936.38;;;3.29;62.10
41044;BME280;51680;49.806;18.774;2022-11-20T07:09:58;96939.41;;;2.79;63.11
41044;BME280;51680;49.806;18.774;2022-11-20T07:12:59;96953.78;;;2.43;64.85
41044;BME280;51680;49.806;18.774;2022-11-20T07:16:04;96960.22;;;2.31;65.90
41044;BME280;51680;49.806;18.774;2022-11-20T07:19:07;96959.84;;;1.97;66.99
41044;BME280;51680;49.806;18.774;2022-11-20T07:22:09;96961.88;;;1.65;67.91
41044;BME280;51680;49.806;18.774;2022-11-20T07:25:11;96972.66;;;1.51;68.39
41044;BME280;51680;49.806;18.774;2022-11-20T07:28:13;96973.88;;;1.17;69.64
41044;BME280;51680;49.806;18.774;2022-11-20T07:31:16;96973.59;;;1.01;70.10
41044;BME280;51680;49.806;18.774;2022-11-20T07:34:17;96973.38;;;1.07;70.04
41044;BME280;51680;49.806;18.774;2022-11-20T07:37:20;96972.22;;;1.16;69.19
41044;BME280;51680;49.806;18.774;2022-11-20T07:40:22;96971.19;;;1.21;68.92
41044;BME280;51680;49.806;18.774;2022-11-20T07:43:24;96967.63;;;1.25;69.13
41044;BME280;51680;49.806;18.774;2022-11-20T07:46:27;96977.91;;;1.25;69.21
41044;BME280;51680;49.806;18.774;2022-11-20T07:49:29;96976.78;;;1.32;68.90
41044;BME280;51680;49.806;18.774;2022-11-20T07:52:31;96980.19;;;1.08;69.34
41044;BME280;51680;49.806;18.774;2022-11-20T07:55:33;96977.91;;;0.99;69.69
41044;BME280;51680;49.806;18.774;2022-11-20T07:58:34;96981.00;;;0.84;70.06
41044;BME280;51680;49.806;18.774;2022-11-20T08:01:38;96986.44;;;0.75;70.50
41044;BME280;51680;49.806;18.774;2022-11-20T08:04:40;96978.59;;;0.52;71.81
41044;BME280;51680;49.806;18.774;2022-11-20T08:07:43;96977.06;;;0.48;71.80
41044;BME280;51680;49.806;18.774;2022-11-20T08:11:04;96978.44;;;0.58;71.39
41044;BME280;51680;49.806;18.774;2022-11-20T08:14:23;96969.03;;;0.57;71.74
41044;BME280;51680;49.806;18.774;2022-11-20T08:17:26;96981.97;;;0.80;71.11
41044;BME280;51680;49.806;18.774;2022-11-20T08:20:28;96974.19;;;0.83;71.38
41044;BME280;51680;49.806;18.774;2022-11-20T08:23:31;96974.22;;;0.82;70.68
41044;BME280;51680;49.806;18.774;2022-11-20T08:26:33;96974.91;;;0.87;69.98
41044;BME280;51680;49.806;18.774;2022-11-20T08:29:34;96974.81;;;0.90;70.58
41044;BME280;51680;49.806;18.774;2022-11-20T08:32:38;96976.34;;;0.95;70.01
41044;BME280;51680;49.806;18.774;2022-11-20T08:35:39;96980.41;;;1.02;70.04
41044;BME280;51680;49.806;18.774;2022-11-20T08:38:42;96972.84;;;1.22;69.82
41044;BME280;51680;49.806;18.774;2022-11-20T08:41:43;96978.09;;;1.44;69.07
41044;BME280;51680;49.806;18.774;2022-11-20T08:44:45;96974.06;;;1.60;68.62
41044;BME280;51680;49.806;18.774;2022-11-20T08:47:49;96975.28;;;1.74;67.72
41044;BME280;51680;49.806;18.774;2022-11-20T08:50:50;96972.97;;;1.90;67.51
41044;BME280;51680;49.806;18.774;2022-11-20T08:53:52;96979.94;;;2.09;67.91
41044;BME280;51680;49.806;18.774;2022-11-20T08:56:54;96973.75;;;2.15;67.01
41044;BME280;51680;49.806;18.774;2022-11-20T08:59:56;96973.34;;;2.25;66.61
41044;BME280;51680;49.806;18.774;2022-11-20T09:02:59;96984.06;;;2.36;66.31
41044;BME280;51680;49.806;18.774;2022-11-20T09:06:04;96982.84;;;2.45;66.48
41044;BME280;51680;49.806;18.774;2022-11-20T09:09:05;96970.19;;;2.40;63.66
41044;BME280;51680;49.806;18.774;2022-11-20T09:12:07;96973.41;;;2.45;65.30
41044;BME280;51680;49.806;18.774;2022-11-20T09:15:09;96974.59;;;2.58;65.89
41044;BME280;51680;49.806;18.774;2022-11-20T09:18:13;96967.88;;;2.76;65.87
41044;BME280;51680;49.806;18.774;2022-11-20T09:21:14;96964.63;;;2.92;65.87
41044;BME280;51680;49.806;18.774;2022-11-20T09:24:17;96967.72;;;3.00;65.38
41044;BME280;51680;49.806;18.774;2022-11-20T09:27:19;96964.69;;;3.11;65.71
41044;BME280;51680;49.806;18.774;2022-11-20T09:30:22;96966.69;;;3.24;64.96
41044;BME280;51680;49.806;18.774;2022-11-20T09:33:25;96957.41;;;3.40;65.17
41044;BME280;51680;49.806;18.774;2022-11-20T09:36:27;96950.50;;;3.41;64.66
41044;BME280;51680;49.806;18.774;2022-11-20T09:39:28;96953.22;;;3.38;64.35
41044;BME280;51680;49.806;18.774;2022-11-20T09:42:39;96949.91;;;3.34;63.80
41044;BME280;51680;49.806;18.774;2022-11-20T09:45:50;96944.38;;;3.23;64.40
41044;BME280;51680;49.806;18.774;2022-11-20T09:49:25;96942.91;;;2.98;65.05
41044;BME280;51680;49.806;18.774;2022-11-20T09:52:38;96939.22;;;2.83;65.39
41044;BME280;51680;49.806;18.774;2022-11-20T09:55:42;96953.22;;;2.56;65.87
41044;BME280;51680;49.806;18.774;2022-11-20T09:58:45;96951.25;;;2.41;66.71
41044;BME280;51680;49.806;18.774;2022-11-20T10:01:49;96950.88;;;2.29;66.94
41044;BME280;51680;49.806;18.774;2022-11-20T10:04:55;96950.63;;;2.13;67.62
41044;BME280;51680;49.806;18.774;2022-11-20T10:08:09;96932.50;;;2.16;68.14
41044;BME280;51680;49.806;18.774;2022-11-20T10:11:21;96927.94;;;2.23;68.36
41044;BME280;51680;49.806;18.774;2022-11-20T10:14:37;96928.22;;;2.37;68.07
41044;BME280;51680;49.806;18.774;2022-11-20T10:17:55;96920.78;;;2.72;67.84
41044;BME280;51680;49.806;18.774;2022-11-20T10:21:08;96920.19;;;3.07;66.51
41044;BME280;51680;49.806;18.774;2022-11-20T10:24:45;96902.69;;;3.52;66.84
41044;BME280;51680;49.806;18.774;2022-11-20T10:28:14;96896.72;;;4.43;64.66
41044;BME280;51680;49.806;18.774;2022-11-20T10:31:27;96895.66;;;4.99;62.51
41044;BME280;51680;49.806;18.774;2022-11-20T10:34:34;96896.84;;;5.09;61.93
41044;BME280;51680;49.806;18.774;2022-11-20T10:37:43;96906.34;;;5.09;61.95
41044;BME280;51680;49.806;18.774;2022-11-20T10:40:49;96902.78;;;5.11;61.97
41044;BME280;51680;49.806;18.774;2022-11-20T10:44:00;96908.56;;;4.99;63.16
41044;BME280;51680;49.806;18.774;2022-11-20T10:47:04;96905.06;;;5.00;63.64
41044;BME280;51680;49.806;18.774;2022-11-20T10:50:11;96901.38;;;5.21;63.47
41044;BME280;51680;49.806;18.774;2022-11-20T10:53:28;96898.50;;;5.27;62.77
41044;BME280;51680;49.806;18.774;2022-11-20T10:56:38;96902.22;;;5.39;63.03
41044;BME280;51680;49.806;18.774;2022-11-20T10:59:51;96900.00;;;5.31;63.31
41044;BME280;51680;49.806;18.774;2022-11-20T11:02:57;96897.53;;;5.45;63.45
41044;BME280;51680;49.806;18.774;2022-11-20T11:06:06;96893.44;;;5.74;63.57
41044;BME280;51680;49.806;18.774;2022-11-20T11:09:15;96892.75;;;6.03;63.05
41044;BME280;51680;49.806;18.774;2022-11-20T11:12:18;96884.50;;;6.27;62.73
41044;BME280;51680;49.806;18.774;2022-11-20T11:15:28;96892.16;;;6.44;61.42
41044;BME280;51680;49.806;18.774;2022-11-20T11:18:32;96891.22;;;6.45;62.37
41044;BME280;51680;49.806;18.774;2022-11-20T11:21:35;96893.25;;;6.40;62.48
41044;BME280;51680;49.806;18.774;2022-11-20T11:24:51;96886.75;;;6.49;61.97
41044;BME280;51680;49.806;18.774;2022-11-20T11:27:54;96882.13;;;6.54;62.30
41044;BME280;51680;49.806;18.774;2022-11-20T11:30:57;96879.41;;;6.71;61.80
41044;BME280;51680;49.806;18.774;2022-11-20T11:34:05;96878.53;;;6.86;61.31
41044;BME280;51680;49.806;18.774;2022-11-20T11:37:13;96877.88;;;6.82;61.42
41044;BME280;51680;49.806;18.774;2022-11-20T11:40:18;96886.94;;;6.89;61.43
41044;BME280;51680;49.806;18.774;2022-11-20T11:43:23;96883.13;;;6.81;62.43
41044;BME280;51680;49.806;18.774;2022-11-20T11:46:53;96873.09;;;6.45;62.11
41044;BME280;51680;49.806;18.774;2022-11-20T11:50:14;96874.44;;;6.21;63.24
41044;BME280;51680;49.806;18.774;2022-11-20T11:53:17;96875.63;;;5.85;64.12
41044;BME280;51680;49.806;18.774;2022-11-20T11:56:21;96876.38;;;5.87;64.45
41044;BME280;51680;49.806;18.774;2022-11-20T11:59:28;96859.09;;;6.03;64.75
41044;BME280;51680;49.806;18.774;2022-11-20T12:02:38;96852.97;;;6.19;64.36
41044;BME280;51680;49.806;18.774;2022-11-20T12:05:53;96844.28;;;6.20;63.71
41044;BME280;51680;49.806;18.774;2022-11-20T12:08:59;96827.16;;;6.18;64.04
41044;BME280;51680;49.806;18.774;2022-11-20T12:12:08;96823.63;;;6.19;63.47
41044;BME280;51680;49.806;18.774;2022-11-20T12:15:19;96817.13;;;6.27;63.58
41044;BME280;51680;49.806;18.774;2022-11-20T12:18:22;96831.69;;;6.44;63.61
41044;BME280;51680;49.806;18.774;2022-11-20T12:21:30;96829.03;;;6.45;62.78
41044;BME280;51680;49.806;18.774;2022-11-20T12:24:42;96820.47;;;6.59;62.61
41044;BME280;51680;49.806;18.774;2022-11-20T12:27:54;96814.59;;;6.55;62.19
41044;BME280;51680;49.806;18.774;2022-11-20T12:31:12;96818.66;;;6.45;62.29
41044;BME280;51680;49.806;18.774;2022-11-20T12:34:34;96809.69;;;6.51;62.24
41044;BME280;51680;49.806;18.774;2022-11-20T12:37:45;96802.94;;;6.48;62.22
41044;BME280;51680;49.806;18.774;2022-11-20T12:40:56;96799.94;;;6.40;62.55
41044;BME280;51680;49.806;18.774;2022-11-20T12:44:15;96817.06;;;6.43;63.36
41044;BME280;51680;49.806;18.774;2022-11-20T12:47:56;96801.03;;;6.36;62.74
41044;BME280;51680;49.806;18.774;2022-11-20T12:51:14;96809.00;;;6.33;63.61
41044;BME280;51680;49.806;18.774;2022-11-20T12:54:46;96795.47;;;6.28;61.90
41044;BME280;51680;49.806;18.774;2022-11-20T12:57:57;96791.00;;;6.30;62.77
41044;BME280;51680;49.806;18.774;2022-11-20T13:01:08;96807.41;;;6.31;63.15
41044;BME280;51680;49.806;18.774;2022-11-20T13:04:52;96781.50;;;6.31;63.17
41044;BME280;51680;49.806;18.774;2022-11-20T13:07:57;96786.44;;;6.20;63.75
41044;BME280;51680;49.806;18.774;2022-11-20T13:11:05;96772.91;;;6.15;63.51
41044;BME280;51680;49.806;18.774;2022-11-20T13:14:21;96762.97;;;6.07;64.41
41044;BME280;51680;49.806;18.774;2022-11-20T13:17:34;96770.75;;;6.07;64.13
41044;BME280;51680;49.806;18.774;2022-11-20T13:20:57;96767.41;;;6.05;64.59
41044;BME280;51680;49.806;18.774;2022-11-20T13:24:04;96765.91;;;6.01;64.59
41044;BME280;51680;49.806;18.774;2022-11-20T13:27:18;96763.41;;;6.00;64.54
41044;BME280;51680;49.806;18.774;2022-11-20T13:30:22;96765.34;;;5.96;65.57
41044;BME280;51680;49.806;18.774;2022-11-20T13:33:29;96763.47;;;5.98;65.01
41044;BME280;51680;49.806;18.774;2022-11-20T13:36:32;96756.31;;;6.03;65.39
41044;BME280;51680;49.806;18.774;2022-11-20T13:39:36;96742.09;;;6.10;65.83
41044;BME280;51680;49.806;18.774;2022-11-20T13:42:40;96730.19;;;6.22;65.40
41044;BME280;51680;49.806;18.774;2022-11-20T13:45:54;96727.16;;;6.29;65.24
41044;BME280;51680;49.806;18.774;2022-11-20T13:48:58;96731.91;;;6.37;65.30
41044;BME280;51680;49.806;18.774;2022-11-20T13:52:18;96740.88;;;6.45;64.65
41044;BME280;51680;49.806;18.774;2022-11-20T13:55:32;96742.66;;;6.45;65.04
41044;BME280;51680;49.806;18.774;2022-11-20T13:58:44;96756.53;;;6.44;64.86
41044;BME280;51680;49.806;18.774;2022-11-20T14:01:50;96765.44;;;6.40;65.26
41044;BME280;51680;49.806;18.774;2022-11-20T14:04:56;96760.41;;;6.37;65.53
41044;BME280;51680;49.806;18.774;2022-11-20T14:07:59;96762.25;;;6.35;66.12
41044;BME280;51680;49.806;18.774;2022-11-20T14:11:05;96749.38;;;6.33;66.26
41044;BME280;51680;49.806;18.774;2022-11-20T14:14:16;96750.41;;;6.31;65.81
41044;BME280;51680;49.806;18.774;2022-11-20T14:17:21;96748.53;;;6.33;65.85
41044;BME280;51680;49.806;18.774;2022-11-20T14:20:27;96751.22;;;6.31;65.95
41044;BME280;51680;49.806;18.774;2022-11-20T14:23:30;96750.56;;;6.28;66.37
41044;BME280;51680;49.806;18.774;2022-11-20T14:26:32;96756.59;;;6.28;66.63
41044;BME280;51680;49.806;18.774;2022-11-20T14:29:37;96759.34;;;6.25;66.85
41044;BME280;51680;49.806;18.774;2022-11-20T14:32:42;96739.38;;;6.27;66.58
41044;BME280;51680;49.806;18.774;2022-11-20T14:35:47;96732.34;;;6.29;66.16
41044;BME280;51680;49.806;18.774;2022-11-20T14:38:50;96732.50;;;6.26;66.53
41044;BME280;51680;49.806;18.774;2022-11-20T14:41:53;96734.94;;;6.29;66.96
41044;BME280;51680;49.806;18.774;2022-11-20T14:44:57;96726.44;;;6.27;67.05
41044;BME280;51680;49.806;18.774;2022-11-20T14:47:59;96722.41;;;6.22;67.45
41044;BME280;51680;49.806;18.774;2022-11-20T14:51:02;96725.66;;;6.25;67.35
41044;BME280;51680;49.806;18.774;2022-11-20T14:54:09;96721.66;;;6.20;67.15
41044;BME280;51680;49.806;18.774;2022-11-20T14:57:21;96709.91;;;6.14;67.68
41044;BME280;51680;49.806;18.774;2022-11-20T15:00:24;96708.97;;;6.15;67.53
41044;BME280;51680;49.806;18.774;2022-11-20T15:03:31;96714.81;;;6.19;67.56
41044;BME280;51680;49.806;18.774;2022-11-20T15:06:35;96710.63;;;6.16;67.35
41044;BME280;51680;49.806;18.774;2022-11-20T15:09:37;96716.53;;;6.04;68.51
41044;BME280;51680;49.806;18.774;2022-11-20T15:12:45;96718.03;;;6.08;67.72
41044;BME280;51680;49.806;18.774;2022-11-20T15:15:49;96715.44;;;6.08;67.96
41044;BME280;51680;49.806;18.774;2022-11-20T15:18:51;96725.25;;;6.03;67.96
41044;BME280;51680;49.806;18.774;2022-11-20T15:21:54;96721.38;;;5.95;68.18
41044;BME280;51680;49.806;18.774;2022-11-20T15:24:56;96715.03;;;6.00;68.22
41044;BME280;51680;49.806;18.774;2022-11-20T15:27:58;96714.88;;;6.03;67.91
41044;BME280;51680;49.806;18.774;2022-11-20T15:31:00;96721.38;;;6.10;67.83
41044;BME280;51680;49.806;18.774;2022-11-20T15:34:05;96721.19;;;6.13;68.31
41044;BME280;51680;49.806;18.774;2022-11-20T15:37:09;96722.59;;;6.19;68.24
41044;BME280;51680;49.806;18.774;2022-11-20T15:40:11;96726.03;;;6.19;68.36
41044;BME280;51680;49.806;18.774;2022-11-20T15:43:13;96721.56;;;6.21;68.61
41044;BME280;51680;49.806;18.774;2022-11-20T15:46:16;96715.47;;;6.22;68.65
41044;BME280;51680;49.806;18.774;2022-11-20T15:49:20;96710.28;;;6.22;68.12
41044;BME280;51680;49.806;18.774;2022-11-20T15:52:25;96715.47;;;6.22;68.08
41044;BME280;51680;49.806;18.774;2022-11-20T15:55:27;96713.66;;;6.09;68.14
41044;BME280;51680;49.806;18.774;2022-11-20T15:58:28;96701.25;;;6.00;68.79
41044;BME280;51680;49.806;18.774;2022-11-20T16:01:30;96705.03;;;5.94;69.05
41044;BME280;51680;49.806;18.774;2022-11-20T16:04:32;96703.03;;;5.84;68.88
41044;BME280;51680;49.806;18.774;2022-11-20T16:07:35;96707.94;;;5.88;68.98
41044;BME280;51680;49.806;18.774;2022-11-20T16:10:37;96711.13;;;5.93;69.39
41044;BME280;51680;49.806;18.774;2022-11-20T16:13:39;96731.50;;;5.99;68.74
41044;BME280;51680;49.806;18.774;2022-11-20T16:16:59;96721.72;;;6.04;69.12
41044;BME280;51680;49.806;18.774;2022-11-20T16:20:02;96729.44;;;5.90;69.07
41044;BME280;51680;49.806;18.774;2022-11-20T16:23:06;96733.59;;;5.77;70.01